PPIZ METAR and TAF weather

Enter ICAO airport designator
Station Type Date Time Source
PPIZ METAR 2021/05/14 05:56 UTC NOAA

PPIZ 140556Z AUTO 05010KT 10SM CLR M02/M05 A3013 RMK AO2 SLP205 T10221050 10011 21022 58005 FZRANO


Station Type Date Time Source
PPIZ Decoded METAR 2021/05/14 05:56 UTC NOAA

Point Lay, Point Lay LRRS Airport, AK, United States (PPIZ) 69-43N 163-00W
May 14, 2021 - 01:56 AM EDT / 2021.05.14 0556 UTC
Wind: from the NE (050 degrees) at 12 MPH (10 KT):0
Visibility: 10 mile(s):0
Sky conditions: clear
Temperature: 28.0 F (-2.2 C)
Windchill: 17 F (-8 C):1
Dew Point: 23.0 F (-5.0 C)
Relative Humidity: 81%
Pressure (altimeter): 30.13 in. Hg (1020 hPa)
Pressure tendency: 0.01 inches (0.5 hPa) lower than three hours ago
ob: PPIZ 140556Z AUTO 05010KT 10SM CLR M02/M05 A3013 RMK AO2 SLP205 T10221050 10011 21022 58005 FZRANO
cycle: 6

Station Type Date Time Source
PPIZ TAF UTC NOAA

Error!

Example: see airport list